Terminal Aerodrome Forecast
Issued by NWS

Home | Current Version | Previous Version | Text Only | Print | Product List | Glossary On
Versions: 1 2 3 4 5 6 7 8 9 10 11 12 13 14 15 16 17
473
FTUS43 KLSX 281128
TAFSUS
TAF
KSUS 281128Z 2812/2912 00000KT 6SM BR SCT200
     FM281400 32006KT P6SM SCT050
     FM282100 32006KT P6SM VCTS SCT050CB
     FM290200 VRB04KT P6SM SCT150
     FM290800 00000KT 6SM BR SCT100=

USA.gov is the U.S. government's official web portal to all federal, state and local government web resources and services.